sensor_id;sensor_type;location;lat;lon;timestamp;P1;durP1;ratioP1;P2;durP2;ratioP2
24619;SDS011;12763;55.802;37.404;2022-08-05T00:00:48;26.42;;;17.17;;
24619;SDS011;12763;55.802;37.404;2022-08-05T00:03:14;31.13;;;17.30;;
24619;SDS011;12763;55.802;37.404;2022-08-05T00:05:40;28.77;;;17.35;;
24619;SDS011;12763;55.802;37.404;2022-08-05T00:08:08;25.02;;;16.35;;
24619;SDS011;12763;55.802;37.404;2022-08-05T00:10:34;23.35;;;16.83;;
24619;SDS011;12763;55.802;37.404;2022-08-05T00:13:00;29.02;;;17.35;;
24619;SDS011;12763;55.802;37.404;2022-08-05T00:15:26;23.00;;;16.83;;
24619;SDS011;12763;55.802;37.404;2022-08-05T00:17:52;27.45;;;16.65;;
24619;SDS011;12763;55.802;37.404;2022-08-05T00:20:18;27.23;;;16.92;;
24619;SDS011;12763;55.802;37.404;2022-08-05T00:22:44;28.05;;;16.65;;
24619;SDS011;12763;55.802;37.404;2022-08-05T00:25:10;33.33;;;18.27;;
24619;SDS011;12763;55.802;37.404;2022-08-05T00:27:36;26.30;;;16.58;;
24619;SDS011;12763;55.802;37.404;2022-08-05T00:30:03;29.23;;;16.52;;
24619;SDS011;12763;55.802;37.404;2022-08-05T00:32:30;25.73;;;15.77;;
24619;SDS011;12763;55.802;37.404;2022-08-05T00:34:56;27.17;;;16.00;;
24619;SDS011;12763;55.802;37.404;2022-08-05T00:37:22;31.02;;;15.95;;
24619;SDS011;12763;55.802;37.404;2022-08-05T00:39:48;25.27;;;16.88;;
24619;SDS011;12763;55.802;37.404;2022-08-05T00:42:14;32.20;;;17.30;;
24619;SDS011;12763;55.802;37.404;2022-08-05T00:44:43;24.63;;;15.90;;
24619;SDS011;12763;55.802;37.404;2022-08-05T00:47:09;25.42;;;16.88;;
24619;SDS011;12763;55.802;37.404;2022-08-05T00:49:35;25.83;;;15.85;;
24619;SDS011;12763;55.802;37.404;2022-08-05T00:52:01;24.25;;;16.98;;
24619;SDS011;12763;55.802;37.404;2022-08-05T00:54:27;28.85;;;17.02;;
24619;SDS011;12763;55.802;37.404;2022-08-05T00:56:53;25.27;;;16.73;;
24619;SDS011;12763;55.802;37.404;2022-08-05T00:59:19;25.15;;;17.75;;
24619;SDS011;12763;55.802;37.404;2022-08-05T01:01:44;26.65;;;16.73;;
24619;SDS011;12763;55.802;37.404;2022-08-05T01:04:10;30.80;;;18.05;;
24619;SDS011;12763;55.802;37.404;2022-08-05T01:06:36;28.25;;;16.50;;
24619;SDS011;12763;55.802;37.404;2022-08-05T01:09:02;26.80;;;16.42;;
24619;SDS011;12763;55.802;37.404;2022-08-05T01:11:31;27.95;;;16.73;;
24619;SDS011;12763;55.802;37.404;2022-08-05T01:24:40;28.58;;;17.10;;
24619;SDS011;12763;55.802;37.404;2022-08-05T01:30:17;27.02;;;17.13;;
24619;SDS011;12763;55.802;37.404;2022-08-05T01:32:43;29.60;;;17.17;;
24619;SDS011;12763;55.802;37.404;2022-08-05T01:35:14;25.70;;;17.52;;
24619;SDS011;12763;55.802;37.404;2022-08-05T01:37:46;31.13;;;17.58;;
24619;SDS011;12763;55.802;37.404;2022-08-05T01:40:16;28.35;;;17.95;;
24619;SDS011;12763;55.802;37.404;2022-08-05T01:42:44;29.33;;;16.95;;
24619;SDS011;12763;55.802;37.404;2022-08-05T01:45:13;27.98;;;17.60;;
24619;SDS011;12763;55.802;37.404;2022-08-05T01:47:41;24.98;;;15.93;;
24619;SDS011;12763;55.802;37.404;2022-08-05T01:50:25;27.73;;;17.50;;
24619;SDS011;12763;55.802;37.404;2022-08-05T01:52:54;23.27;;;17.33;;
24619;SDS011;12763;55.802;37.404;2022-08-05T01:55:24;27.15;;;17.23;;
24619;SDS011;12763;55.802;37.404;2022-08-05T01:57:53;31.75;;;16.98;;
24619;SDS011;12763;55.802;37.404;2022-08-05T02:00:21;27.48;;;17.13;;
24619;SDS011;12763;55.802;37.404;2022-08-05T02:02:53;27.60;;;17.00;;
24619;SDS011;12763;55.802;37.404;2022-08-05T02:05:22;25.70;;;17.08;;
24619;SDS011;12763;55.802;37.404;2022-08-05T02:07:53;26.13;;;18.27;;
24619;SDS011;12763;55.802;37.404;2022-08-05T02:10:19;29.92;;;18.10;;
24619;SDS011;12763;55.802;37.404;2022-08-05T02:13:02;28.25;;;18.05;;
24619;SDS011;12763;55.802;37.404;2022-08-05T02:15:42;26.85;;;18.75;;
24619;SDS011;12763;55.802;37.404;2022-08-05T02:21:29;25.90;;;17.73;;
24619;SDS011;12763;55.802;37.404;2022-08-05T02:23:58;26.75;;;18.65;;
24619;SDS011;12763;55.802;37.404;2022-08-05T02:26:32;28.80;;;18.70;;
24619;SDS011;12763;55.802;37.404;2022-08-05T02:29:05;33.75;;;19.33;;
24619;SDS011;12763;55.802;37.404;2022-08-05T02:31:36;32.95;;;17.70;;
24619;SDS011;12763;55.802;37.404;2022-08-05T02:34:06;27.55;;;18.00;;
24619;SDS011;12763;55.802;37.404;2022-08-05T02:36:38;29.85;;;19.05;;
24619;SDS011;12763;55.802;37.404;2022-08-05T02:39:07;29.33;;;18.20;;
24619;SDS011;12763;55.802;37.404;2022-08-05T02:41:37;34.15;;;22.55;;
24619;SDS011;12763;55.802;37.404;2022-08-05T02:44:05;25.23;;;17.90;;
24619;SDS011;12763;55.802;37.404;2022-08-05T02:46:36;28.70;;;19.55;;
24619;SDS011;12763;55.802;37.404;2022-08-05T02:49:04;30.08;;;19.02;;
24619;SDS011;12763;55.802;37.404;2022-08-05T02:51:31;30.10;;;17.98;;
24619;SDS011;12763;55.802;37.404;2022-08-05T02:53:59;32.45;;;21.15;;
24619;SDS011;12763;55.802;37.404;2022-08-05T02:56:25;30.60;;;18.40;;
24619;SDS011;12763;55.802;37.404;2022-08-05T02:58:52;32.05;;;19.25;;
24619;SDS011;12763;55.802;37.404;2022-08-05T03:01:22;30.35;;;19.30;;
24619;SDS011;12763;55.802;37.404;2022-08-05T03:03:51;26.10;;;18.45;;
24619;SDS011;12763;55.802;37.404;2022-08-05T03:06:21;27.73;;;17.98;;
24619;SDS011;12763;55.802;37.404;2022-08-05T03:08:48;30.08;;;18.42;;
24619;SDS011;12763;55.802;37.404;2022-08-05T03:11:20;31.08;;;18.05;;
24619;SDS011;12763;55.802;37.404;2022-08-05T03:13:47;30.35;;;18.60;;
24619;SDS011;12763;55.802;37.404;2022-08-05T03:16:14;29.40;;;18.77;;
24619;SDS011;12763;55.802;37.404;2022-08-05T03:18:40;36.72;;;18.95;;
24619;SDS011;12763;55.802;37.404;2022-08-05T03:21:07;24.50;;;18.23;;
24619;SDS011;12763;55.802;37.404;2022-08-05T03:23:34;35.92;;;19.42;;
24619;SDS011;12763;55.802;37.404;2022-08-05T03:26:01;26.40;;;17.98;;
24619;SDS011;12763;55.802;37.404;2022-08-05T03:28:28;40.13;;;20.50;;
24619;SDS011;12763;55.802;37.404;2022-08-05T03:30:55;32.25;;;19.25;;
24619;SDS011;12763;55.802;37.404;2022-08-05T03:33:22;30.25;;;18.55;;
24619;SDS011;12763;55.802;37.404;2022-08-05T03:35:49;30.98;;;20.60;;
24619;SDS011;12763;55.802;37.404;2022-08-05T03:38:15;31.92;;;19.90;;
24619;SDS011;12763;55.802;37.404;2022-08-05T03:40:44;32.53;;;19.20;;
24619;SDS011;12763;55.802;37.404;2022-08-05T03:43:11;30.23;;;19.55;;
24619;SDS011;12763;55.802;37.404;2022-08-05T03:45:37;26.75;;;18.05;;
24619;SDS011;12763;55.802;37.404;2022-08-05T03:48:03;32.90;;;19.60;;
24619;SDS011;12763;55.802;37.404;2022-08-05T03:51:12;28.83;;;19.20;;
24619;SDS011;12763;55.802;37.404;2022-08-05T03:53:30;30.75;;;19.10;;
24619;SDS011;12763;55.802;37.404;2022-08-05T03:56:21;32.33;;;19.77;;
24619;SDS011;12763;55.802;37.404;2022-08-05T03:58:54;31.77;;;19.88;;
24619;SDS011;12763;55.802;37.404;2022-08-05T04:01:24;31.38;;;19.63;;
24619;SDS011;12763;55.802;37.404;2022-08-05T04:03:53;32.72;;;19.90;;
24619;SDS011;12763;55.802;37.404;2022-08-05T04:06:19;32.55;;;20.92;;
24619;SDS011;12763;55.802;37.404;2022-08-05T04:08:47;28.92;;;19.30;;
24619;SDS011;12763;55.802;37.404;2022-08-05T04:11:14;36.40;;;19.58;;
24619;SDS011;12763;55.802;37.404;2022-08-05T04:13:41;33.35;;;20.42;;
24619;SDS011;12763;55.802;37.404;2022-08-05T04:16:11;27.27;;;19.58;;
24619;SDS011;12763;55.802;37.404;2022-08-05T04:18:38;29.70;;;19.90;;
24619;SDS011;12763;55.802;37.404;2022-08-05T04:21:05;33.72;;;21.00;;
24619;SDS011;12763;55.802;37.404;2022-08-05T04:23:32;33.22;;;20.60;;
24619;SDS011;12763;55.802;37.404;2022-08-05T04:26:00;39.58;;;21.33;;
24619;SDS011;12763;55.802;37.404;2022-08-05T04:28:26;31.98;;;20.45;;
24619;SDS011;12763;55.802;37.404;2022-08-05T04:30:52;31.58;;;20.85;;
24619;SDS011;12763;55.802;37.404;2022-08-05T04:33:18;37.00;;;19.45;;
24619;SDS011;12763;55.802;37.404;2022-08-05T04:35:44;30.55;;;20.75;;
24619;SDS011;12763;55.802;37.404;2022-08-05T04:38:10;32.63;;;21.13;;
24619;SDS011;12763;55.802;37.404;2022-08-05T04:40:36;43.92;;;20.83;;
24619;SDS011;12763;55.802;37.404;2022-08-05T04:43:03;39.08;;;20.48;;
24619;SDS011;12763;55.802;37.404;2022-08-05T04:45:29;35.00;;;20.15;;
24619;SDS011;12763;55.802;37.404;2022-08-05T04:48:02;28.77;;;19.67;;
24619;SDS011;12763;55.802;37.404;2022-08-05T04:50:43;36.70;;;22.50;;
24619;SDS011;12763;55.802;37.404;2022-08-05T04:53:10;50.53;;;22.58;;
24619;SDS011;12763;55.802;37.404;2022-08-05T04:55:38;38.20;;;20.27;;
24619;SDS011;12763;55.802;37.404;2022-08-05T04:58:06;39.92;;;21.25;;
24619;SDS011;12763;55.802;37.404;2022-08-05T05:00:34;45.67;;;22.02;;
24619;SDS011;12763;55.802;37.404;2022-08-05T05:03:02;36.78;;;20.35;;
24619;SDS011;12763;55.802;37.404;2022-08-05T05:05:29;40.20;;;21.65;;
24619;SDS011;12763;55.802;37.404;2022-08-05T05:07:58;44.08;;;23.05;;
24619;SDS011;12763;55.802;37.404;2022-08-05T05:10:26;35.95;;;21.80;;
24619;SDS011;12763;55.802;37.404;2022-08-05T05:12:52;50.40;;;22.75;;
24619;SDS011;12763;55.802;37.404;2022-08-05T05:15:18;38.72;;;21.38;;
24619;SDS011;12763;55.802;37.404;2022-08-05T05:17:44;33.80;;;20.63;;
24619;SDS011;12763;55.802;37.404;2022-08-05T05:20:11;35.25;;;21.73;;
24619;SDS011;12763;55.802;37.404;2022-08-05T05:22:37;30.77;;;21.00;;
24619;SDS011;12763;55.802;37.404;2022-08-05T05:25:07;33.47;;;21.20;;
24619;SDS011;12763;55.802;37.404;2022-08-05T05:27:33;34.50;;;20.63;;
24619;SDS011;12763;55.802;37.404;2022-08-05T05:30:00;35.53;;;19.20;;
24619;SDS011;12763;55.802;37.404;2022-08-05T05:32:29;34.40;;;19.80;;
24619;SDS011;12763;55.802;37.404;2022-08-05T05:34:54;34.95;;;19.58;;
24619;SDS011;12763;55.802;37.404;2022-08-05T05:37:20;30.20;;;19.48;;
24619;SDS011;12763;55.802;37.404;2022-08-05T05:39:46;29.73;;;19.25;;
24619;SDS011;12763;55.802;37.404;2022-08-05T05:42:12;31.02;;;19.05;;
24619;SDS011;12763;55.802;37.404;2022-08-05T05:44:38;30.27;;;19.67;;
24619;SDS011;12763;55.802;37.404;2022-08-05T05:47:04;40.63;;;18.17;;
24619;SDS011;12763;55.802;37.404;2022-08-05T05:49:30;32.35;;;18.92;;
24619;SDS011;12763;55.802;37.404;2022-08-05T05:51:56;26.25;;;17.75;;
24619;SDS011;12763;55.802;37.404;2022-08-05T05:54:22;26.15;;;16.83;;
24619;SDS011;12763;55.802;37.404;2022-08-05T05:56:48;29.92;;;16.90;;
24619;SDS011;12763;55.802;37.404;2022-08-05T05:59:14;26.17;;;16.50;;
24619;SDS011;12763;55.802;37.404;2022-08-05T06:01:40;27.30;;;16.45;;
24619;SDS011;12763;55.802;37.404;2022-08-05T06:04:08;28.20;;;16.60;;
24619;SDS011;12763;55.802;37.404;2022-08-05T06:06:35;24.67;;;15.63;;
24619;SDS011;12763;55.802;37.404;2022-08-05T06:09:05;28.10;;;15.30;;
24619;SDS011;12763;55.802;37.404;2022-08-05T06:11:31;26.35;;;15.52;;
24619;SDS011;12763;55.802;37.404;2022-08-05T06:13:58;27.80;;;16.45;;
24619;SDS011;12763;55.802;37.404;2022-08-05T06:16:25;29.67;;;15.55;;
24619;SDS011;12763;55.802;37.404;2022-08-05T06:18:51;23.60;;;15.27;;
24619;SDS011;12763;55.802;37.404;2022-08-05T06:21:17;23.10;;;15.43;;
24619;SDS011;12763;55.802;37.404;2022-08-05T06:23:43;21.95;;;13.98;;
24619;SDS011;12763;55.802;37.404;2022-08-05T06:26:10;21.38;;;13.88;;
24619;SDS011;12763;55.802;37.404;2022-08-05T06:28:36;24.20;;;13.80;;
24619;SDS011;12763;55.802;37.404;2022-08-05T06:31:02;26.33;;;14.05;;
24619;SDS011;12763;55.802;37.404;2022-08-05T06:33:28;21.45;;;13.80;;
24619;SDS011;12763;55.802;37.404;2022-08-05T06:35:54;25.70;;;14.60;;
24619;SDS011;12763;55.802;37.404;2022-08-05T06:38:20;20.08;;;13.23;;
24619;SDS011;12763;55.802;37.404;2022-08-05T06:40:46;23.33;;;13.48;;
24619;SDS011;12763;55.802;37.404;2022-08-05T06:43:12;20.35;;;13.55;;
24619;SDS011;12763;55.802;37.404;2022-08-05T06:45:38;31.67;;;15.13;;
24619;SDS011;12763;55.802;37.404;2022-08-05T06:48:04;24.35;;;13.15;;
24619;SDS011;12763;55.802;37.404;2022-08-05T06:50:30;21.50;;;13.05;;
24619;SDS011;12763;55.802;37.404;2022-08-05T06:52:56;25.88;;;12.82;;
24619;SDS011;12763;55.802;37.404;2022-08-05T06:55:22;23.85;;;13.38;;
24619;SDS011;12763;55.802;37.404;2022-08-05T06:57:48;21.25;;;12.98;;
24619;SDS011;12763;55.802;37.404;2022-08-05T07:00:13;19.27;;;11.75;;
24619;SDS011;12763;55.802;37.404;2022-08-05T07:02:40;23.73;;;11.88;;
24619;SDS011;12763;55.802;37.404;2022-08-05T07:05:10;24.38;;;12.32;;
24619;SDS011;12763;55.802;37.404;2022-08-05T07:07:37;20.15;;;12.18;;
24619;SDS011;12763;55.802;37.404;2022-08-05T07:10:04;20.73;;;11.48;;
24619;SDS011;12763;55.802;37.404;2022-08-05T07:12:31;16.77;;;11.55;;
24619;SDS011;12763;55.802;37.404;2022-08-05T07:15:15;25.60;;;12.23;;
24619;SDS011;12763;55.802;37.404;2022-08-05T07:17:59;25.80;;;12.13;;
24619;SDS011;12763;55.802;37.404;2022-08-05T07:20:25;17.02;;;10.38;;
24619;SDS011;12763;55.802;37.404;2022-08-05T07:22:51;31.88;;;10.98;;
24619;SDS011;12763;55.802;37.404;2022-08-05T07:25:17;15.90;;;9.70;;
24619;SDS011;12763;55.802;37.404;2022-08-05T07:27:43;18.05;;;8.98;;
24619;SDS011;12763;55.802;37.404;2022-08-05T07:30:09;21.05;;;11.02;;
24619;SDS011;12763;55.802;37.404;2022-08-05T07:32:36;18.75;;;10.10;;
24619;SDS011;12763;55.802;37.404;2022-08-05T07:35:06;19.30;;;9.30;;
24619;SDS011;12763;55.802;37.404;2022-08-05T07:37:33;20.08;;;9.73;;
24619;SDS011;12763;55.802;37.404;2022-08-05T07:39:59;14.48;;;8.05;;
24619;SDS011;12763;55.802;37.404;2022-08-05T07:42:25;14.85;;;9.45;;
24619;SDS011;12763;55.802;37.404;2022-08-05T07:44:51;11.73;;;8.68;;
24619;SDS011;12763;55.802;37.404;2022-08-05T07:47:17;15.38;;;9.55;;
24619;SDS011;12763;55.802;37.404;2022-08-05T07:49:43;12.10;;;8.52;;
24619;SDS011;12763;55.802;37.404;2022-08-05T07:52:09;12.38;;;9.02;;
24619;SDS011;12763;55.802;37.404;2022-08-05T07:54:35;15.48;;;8.23;;
24619;SDS011;12763;55.802;37.404;2022-08-05T07:57:02;17.67;;;9.07;;
24619;SDS011;12763;55.802;37.404;2022-08-05T07:59:28;14.65;;;8.82;;
24619;SDS011;12763;55.802;37.404;2022-08-05T08:01:57;13.63;;;8.00;;
24619;SDS011;12763;55.802;37.404;2022-08-05T08:04:23;12.50;;;8.18;;
24619;SDS011;12763;55.802;37.404;2022-08-05T08:06:49;14.77;;;8.10;;
24619;SDS011;12763;55.802;37.404;2022-08-05T08:09:15;15.60;;;8.48;;
24619;SDS011;12763;55.802;37.404;2022-08-05T08:11:41;14.60;;;7.82;;
24619;SDS011;12763;55.802;37.404;2022-08-05T08:14:07;15.88;;;8.13;;
24619;SDS011;12763;55.802;37.404;2022-08-05T08:16:33;18.85;;;9.07;;
24619;SDS011;12763;55.802;37.404;2022-08-05T08:18:59;22.30;;;9.75;;
24619;SDS011;12763;55.802;37.404;2022-08-05T08:21:25;18.05;;;9.38;;
24619;SDS011;12763;55.802;37.404;2022-08-05T08:23:51;22.75;;;8.70;;
24619;SDS011;12763;55.802;37.404;2022-08-05T08:26:17;13.52;;;7.65;;
24619;SDS011;12763;55.802;37.404;2022-08-05T08:28:43;16.05;;;8.10;;
24619;SDS011;12763;55.802;37.404;2022-08-05T08:31:09;13.18;;;7.65;;
24619;SDS011;12763;55.802;37.404;2022-08-05T08:33:35;12.13;;;8.07;;
24619;SDS011;12763;55.802;37.404;2022-08-05T08:36:01;12.93;;;8.02;;
24619;SDS011;12763;55.802;37.404;2022-08-05T08:38:27;12.82;;;6.88;;
24619;SDS011;12763;55.802;37.404;2022-08-05T08:40:53;16.17;;;7.07;;
24619;SDS011;12763;55.802;37.404;2022-08-05T08:43:20;10.20;;;7.22;;
24619;SDS011;12763;55.802;37.404;2022-08-05T08:45:48;13.25;;;7.40;;
24619;SDS011;12763;55.802;37.404;2022-08-05T08:48:17;12.52;;;7.60;;
24619;SDS011;12763;55.802;37.404;2022-08-05T08:50:45;8.43;;;7.18;;
24619;SDS011;12763;55.802;37.404;2022-08-05T08:53:13;15.10;;;7.65;;
24619;SDS011;12763;55.802;37.404;2022-08-05T08:55:41;11.38;;;7.07;;
24619;SDS011;12763;55.802;37.404;2022-08-05T08:58:07;12.48;;;6.53;;
24619;SDS011;12763;55.802;37.404;2022-08-05T09:00:34;11.40;;;7.00;;
24619;SDS011;12763;55.802;37.404;2022-08-05T09:03:00;11.93;;;7.28;;
24619;SDS011;12763;55.802;37.404;2022-08-05T09:05:29;15.40;;;7.75;;
24619;SDS011;12763;55.802;37.404;2022-08-05T09:07:55;14.30;;;8.43;;
24619;SDS011;12763;55.802;37.404;2022-08-05T09:10:21;16.48;;;8.23;;
24619;SDS011;12763;55.802;37.404;2022-08-05T09:12:47;10.75;;;7.90;;
24619;SDS011;12763;55.802;37.404;2022-08-05T09:15:13;11.40;;;7.30;;
24619;SDS011;12763;55.802;37.404;2022-08-05T09:17:40;14.98;;;7.63;;
24619;SDS011;12763;55.802;37.404;2022-08-05T09:20:06;15.52;;;7.47;;
24619;SDS011;12763;55.802;37.404;2022-08-05T09:25:26;13.18;;;7.57;;
24619;SDS011;12763;55.802;37.404;2022-08-05T09:27:52;11.18;;;7.30;;
24619;SDS011;12763;55.802;37.404;2022-08-05T09:30:18;10.15;;;7.35;;
24619;SDS011;12763;55.802;37.404;2022-08-05T09:32:45;9.05;;;7.03;;
24619;SDS011;12763;55.802;37.404;2022-08-05T09:35:12;12.93;;;7.22;;
24619;SDS011;12763;55.802;37.404;2022-08-05T09:37:50;14.25;;;6.93;;
24619;SDS011;12763;55.802;37.404;2022-08-05T09:40:31;8.63;;;6.35;;
24619;SDS011;12763;55.802;37.404;2022-08-05T09:42:59;12.77;;;7.10;;
24619;SDS011;12763;55.802;37.404;2022-08-05T09:45:35;9.65;;;6.57;;
24619;SDS011;12763;55.802;37.404;2022-08-05T09:48:23;9.50;;;6.72;;
24619;SDS011;12763;55.802;37.404;2022-08-05T09:50:51;14.75;;;6.93;;
24619;SDS011;12763;55.802;37.404;2022-08-05T09:53:21;10.75;;;6.53;;
24619;SDS011;12763;55.802;37.404;2022-08-05T09:55:57;10.63;;;6.88;;
24619;SDS011;12763;55.802;37.404;2022-08-05T09:58:25;10.15;;;6.93;;
24619;SDS011;12763;55.802;37.404;2022-08-05T10:00:53;11.93;;;6.97;;
24619;SDS011;12763;55.802;37.404;2022-08-05T10:03:21;9.57;;;6.45;;
24619;SDS011;12763;55.802;37.404;2022-08-05T10:05:59;8.40;;;6.78;;
24619;SDS011;12763;55.802;37.404;2022-08-05T10:08:29;12.70;;;6.75;;
24619;SDS011;12763;55.802;37.404;2022-08-05T10:10:56;11.07;;;7.32;;
24619;SDS011;12763;55.802;37.404;2022-08-05T10:13:26;14.23;;;6.75;;
24619;SDS011;12763;55.802;37.404;2022-08-05T10:15:56;12.18;;;7.32;;
24619;SDS011;12763;55.802;37.404;2022-08-05T10:18:23;9.05;;;6.43;;
24619;SDS011;12763;55.802;37.404;2022-08-05T10:20:58;12.20;;;7.10;;
24619;SDS011;12763;55.802;37.404;2022-08-05T10:23:30;15.65;;;7.90;;
24619;SDS011;12763;55.802;37.404;2022-08-05T10:26:02;13.75;;;7.30;;
24619;SDS011;12763;55.802;37.404;2022-08-05T10:28:30;12.13;;;7.38;;
24619;SDS011;12763;55.802;37.404;2022-08-05T10:30:57;10.52;;;7.55;;
24619;SDS011;12763;55.802;37.404;2022-08-05T10:33:27;13.10;;;7.25;;
24619;SDS011;12763;55.802;37.404;2022-08-05T10:35:55;8.93;;;6.55;;
24619;SDS011;12763;55.802;37.404;2022-08-05T10:38:23;12.23;;;7.57;;
24619;SDS011;12763;55.802;37.404;2022-08-05T10:46:17;21.77;;;7.80;;
24619;SDS011;12763;55.802;37.404;2022-08-05T10:48:49;8.35;;;6.47;;
24619;SDS011;12763;55.802;37.404;2022-08-05T10:51:21;11.02;;;7.43;;
24619;SDS011;12763;55.802;37.404;2022-08-05T10:56:17;16.30;;;7.55;;
24619;SDS011;12763;55.802;37.404;2022-08-05T11:09:22;7.78;;;6.65;;
24619;SDS011;12763;55.802;37.404;2022-08-05T11:11:51;12.30;;;6.70;;
24619;SDS011;12763;55.802;37.404;2022-08-05T11:14:25;18.83;;;7.88;;
24619;SDS011;12763;55.802;37.404;2022-08-05T11:20:06;9.32;;;6.97;;
24619;SDS011;12763;55.802;37.404;2022-08-05T11:22:39;9.82;;;6.72;;
24619;SDS011;12763;55.802;37.404;2022-08-05T11:33:31;10.63;;;6.90;;
24619;SDS011;12763;55.802;37.404;2022-08-05T11:36:08;14.05;;;6.57;;
24619;SDS011;12763;55.802;37.404;2022-08-05T11:41:22;9.80;;;7.15;;
24619;SDS011;12763;55.802;37.404;2022-08-05T11:43:59;11.43;;;6.80;;
24619;SDS011;12763;55.802;37.404;2022-08-05T11:46:32;9.32;;;6.15;;
24619;SDS011;12763;55.802;37.404;2022-08-05T11:49:02;11.60;;;6.90;;
24619;SDS011;12763;55.802;37.404;2022-08-05T11:51:29;10.73;;;7.32;;
24619;SDS011;12763;55.802;37.404;2022-08-05T11:53:56;7.93;;;7.05;;
24619;SDS011;12763;55.802;37.404;2022-08-05T11:56:22;11.77;;;7.00;;
24619;SDS011;12763;55.802;37.404;2022-08-05T11:58:49;14.35;;;7.40;;
24619;SDS011;12763;55.802;37.404;2022-08-05T12:01:17;7.45;;;6.10;;
24619;SDS011;12763;55.802;37.404;2022-08-05T12:06:22;10.27;;;6.57;;
24619;SDS011;12763;55.802;37.404;2022-08-05T12:08:52;9.57;;;7.43;;
24619;SDS011;12763;55.802;37.404;2022-08-05T12:11:20;9.88;;;7.47;;
24619;SDS011;12763;55.802;37.404;2022-08-05T12:13:58;8.57;;;7.47;;
24619;SDS011;12763;55.802;37.404;2022-08-05T12:16:36;9.57;;;7.32;;
24619;SDS011;12763;55.802;37.404;2022-08-05T12:19:07;8.55;;;6.88;;
24619;SDS011;12763;55.802;37.404;2022-08-05T12:21:41;8.32;;;7.07;;
24619;SDS011;12763;55.802;37.404;2022-08-05T12:24:12;12.90;;;7.07;;
24619;SDS011;12763;55.802;37.404;2022-08-05T12:26:44;11.77;;;6.80;;
24619;SDS011;12763;55.802;37.404;2022-08-05T12:31:47;10.50;;;7.45;;
24619;SDS011;12763;55.802;37.404;2022-08-05T12:34:15;9.27;;;7.35;;
24619;SDS011;12763;55.802;37.404;2022-08-05T12:36:43;15.43;;;8.02;;
24619;SDS011;12763;55.802;37.404;2022-08-05T12:39:10;11.13;;;7.78;;
24619;SDS011;12763;55.802;37.404;2022-08-05T12:41:37;14.00;;;8.68;;
24619;SDS011;12763;55.802;37.404;2022-08-05T12:44:06;14.20;;;8.52;;
24619;SDS011;12763;55.802;37.404;2022-08-05T12:46:34;10.40;;;8.27;;
24619;SDS011;12763;55.802;37.404;2022-08-05T12:49:12;15.13;;;8.30;;
24619;SDS011;12763;55.802;37.404;2022-08-05T12:51:55;11.35;;;8.05;;
24619;SDS011;12763;55.802;37.404;2022-08-05T12:54:26;11.70;;;8.52;;
24619;SDS011;12763;55.802;37.404;2022-08-05T12:56:56;16.35;;;8.68;;
24619;SDS011;12763;55.802;37.404;2022-08-05T12:59:25;11.48;;;8.68;;
24619;SDS011;12763;55.802;37.404;2022-08-05T13:01:55;12.18;;;8.43;;
24619;SDS011;12763;55.802;37.404;2022-08-05T13:04:25;11.20;;;7.50;;
24619;SDS011;12763;55.802;37.404;2022-08-05T13:06:56;10.15;;;8.38;;
24619;SDS011;12763;55.802;37.404;2022-08-05T13:09:24;10.20;;;8.10;;
24619;SDS011;12763;55.802;37.404;2022-08-05T13:11:50;10.27;;;8.07;;
24619;SDS011;12763;55.802;37.404;2022-08-05T13:16:44;11.80;;;8.65;;
24619;SDS011;12763;55.802;37.404;2022-08-05T13:19:13;11.50;;;8.02;;
24619;SDS011;12763;55.802;37.404;2022-08-05T13:21:39;14.27;;;8.40;;
24619;SDS011;12763;55.802;37.404;2022-08-05T13:24:05;9.10;;;8.13;;
24619;SDS011;12763;55.802;37.404;2022-08-05T13:26:31;9.13;;;8.02;;
24619;SDS011;12763;55.802;37.404;2022-08-05T13:28:58;15.57;;;8.27;;
24619;SDS011;12763;55.802;37.404;2022-08-05T13:31:24;10.02;;;7.43;;
24619;SDS011;12763;55.802;37.404;2022-08-05T13:33:50;10.55;;;8.45;;
24619;SDS011;12763;55.802;37.404;2022-08-05T13:36:16;14.32;;;9.18;;
24619;SDS011;12763;55.802;37.404;2022-08-05T13:38:42;17.45;;;8.80;;
24619;SDS011;12763;55.802;37.404;2022-08-05T13:41:11;12.15;;;8.32;;
24619;SDS011;12763;55.802;37.404;2022-08-05T13:43:37;15.52;;;8.77;;
24619;SDS011;12763;55.802;37.404;2022-08-05T13:46:03;13.57;;;7.47;;
24619;SDS011;12763;55.802;37.404;2022-08-05T13:48:29;13.60;;;7.20;;
24619;SDS011;12763;55.802;37.404;2022-08-05T13:51:03;11.18;;;6.43;;
24619;SDS011;12763;55.802;37.404;2022-08-05T13:53:32;10.32;;;6.60;;
24619;SDS011;12763;55.802;37.404;2022-08-05T13:56:00;8.48;;;5.75;;
24619;SDS011;12763;55.802;37.404;2022-08-05T13:58:26;9.93;;;5.93;;
24619;SDS011;12763;55.802;37.404;2022-08-05T14:00:53;9.88;;;6.68;;
24619;SDS011;12763;55.802;37.404;2022-08-05T14:03:19;9.88;;;6.35;;
24619;SDS011;12763;55.802;37.404;2022-08-05T14:05:45;11.55;;;6.30;;
24619;SDS011;12763;55.802;37.404;2022-08-05T14:08:11;6.78;;;6.07;;
24619;SDS011;12763;55.802;37.404;2022-08-05T14:10:38;15.18;;;8.02;;
24619;SDS011;12763;55.802;37.404;2022-08-05T14:13:04;8.57;;;5.95;;
24619;SDS011;12763;55.802;37.404;2022-08-05T14:15:32;12.68;;;6.50;;
24619;SDS011;12763;55.802;37.404;2022-08-05T14:17:59;7.13;;;6.03;;
24619;SDS011;12763;55.802;37.404;2022-08-05T14:20:25;7.28;;;6.15;;
24619;SDS011;12763;55.802;37.404;2022-08-05T14:22:53;7.53;;;6.18;;
24619;SDS011;12763;55.802;37.404;2022-08-05T14:25:20;7.55;;;6.30;;
24619;SDS011;12763;55.802;37.404;2022-08-05T14:27:46;9.40;;;6.38;;
24619;SDS011;12763;55.802;37.404;2022-08-05T14:30:13;11.25;;;6.15;;
24619;SDS011;12763;55.802;37.404;2022-08-05T14:32:40;11.85;;;6.20;;
24619;SDS011;12763;55.802;37.404;2022-08-05T14:35:07;7.20;;;6.10;;
24619;SDS011;12763;55.802;37.404;2022-08-05T14:37:33;9.77;;;6.65;;
24619;SDS011;12763;55.802;37.404;2022-08-05T14:39:59;11.18;;;6.18;;
24619;SDS011;12763;55.802;37.404;2022-08-05T14:42:25;9.50;;;5.97;;
24619;SDS011;12763;55.802;37.404;2022-08-05T14:44:51;14.40;;;6.35;;
24619;SDS011;12763;55.802;37.404;2022-08-05T14:47:17;7.22;;;5.60;;
24619;SDS011;12763;55.802;37.404;2022-08-05T14:49:43;10.77;;;6.50;;
24619;SDS011;12763;55.802;37.404;2022-08-05T14:52:09;11.45;;;6.43;;
24619;SDS011;12763;55.802;37.404;2022-08-05T14:54:34;7.00;;;6.28;;
24619;SDS011;12763;55.802;37.404;2022-08-05T14:57:00;12.98;;;6.57;;
24619;SDS011;12763;55.802;37.404;2022-08-05T14:59:26;11.18;;;5.82;;
24619;SDS011;12763;55.802;37.404;2022-08-05T15:01:53;10.23;;;6.70;;
24619;SDS011;12763;55.802;37.404;2022-08-05T15:04:19;7.78;;;5.63;;
24619;SDS011;12763;55.802;37.404;2022-08-05T15:06:46;10.93;;;6.55;;
24619;SDS011;12763;55.802;37.404;2022-08-05T15:09:12;10.15;;;6.75;;
24619;SDS011;12763;55.802;37.404;2022-08-05T15:11:38;10.05;;;7.18;;
24619;SDS011;12763;55.802;37.404;2022-08-05T15:14:04;10.93;;;6.35;;
24619;SDS011;12763;55.802;37.404;2022-08-05T15:16:30;8.35;;;6.32;;
24619;SDS011;12763;55.802;37.404;2022-08-05T15:18:56;7.40;;;6.15;;
24619;SDS011;12763;55.802;37.404;2022-08-05T15:21:22;10.73;;;6.85;;